createdAt,value
2018-02-12T08:56:00.772Z,2.87
2018-02-12T08:58:28.823Z,2.50
2018-02-12T09:00:56.747Z,2.47
2018-02-12T09:03:24.454Z,2.17
2018-02-12T09:05:52.375Z,2.47
2018-02-12T09:08:20.062Z,2.70
2018-02-12T09:10:47.736Z,2.70
2018-02-12T09:13:16.768Z,2.80
2018-02-12T09:15:44.716Z,2.30
2018-02-12T09:18:12.398Z,2.10
2018-02-12T09:20:40.066Z,3.12
2018-02-12T09:23:08.122Z,3.20
2018-02-12T09:25:36.096Z,2.22
2018-02-12T09:28:03.765Z,2.80
2018-02-12T09:30:31.470Z,2.28
2018-02-12T09:32:59.127Z,3.00
2018-02-12T09:35:26.816Z,2.53
2018-02-12T09:37:54.486Z,3.20
2018-02-12T09:40:22.347Z,2.62
2018-02-12T09:42:50.014Z,2.55
2018-02-12T09:45:17.667Z,2.40
2018-02-12T09:47:45.354Z,2.72
2018-02-12T09:50:13.026Z,2.53
2018-02-12T09:52:40.987Z,3.55
2018-02-12T09:55:09.467Z,3.30
2018-02-12T09:57:40.288Z,2.90
2018-02-12T10:00:07.947Z,3.45
2018-02-12T10:02:35.644Z,3.58
2018-02-12T10:05:03.335Z,2.83
2018-02-12T10:07:31.006Z,3.10
2018-02-12T10:09:58.700Z,3.90
2018-02-12T10:12:26.359Z,3.40
2018-02-12T10:14:54.232Z,3.35
2018-02-12T10:17:21.909Z,3.37
2018-02-12T10:19:49.574Z,3.15
2018-02-12T10:22:17.544Z,3.65
2018-02-12T10:24:45.516Z,2.60
2018-02-12T10:27:13.193Z,2.50
2018-02-12T10:29:40.851Z,2.45
2018-02-12T10:32:08.545Z,2.72
2018-02-12T10:34:36.206Z,2.53
2018-02-12T10:37:03.863Z,3.03
2018-02-12T10:39:31.573Z,2.30
2018-02-12T10:41:59.234Z,3.40
2018-02-12T10:44:27.903Z,3.20
2018-02-12T10:46:55.568Z,3.12
2018-02-12T10:49:23.272Z,3.10
2018-02-12T10:51:51.228Z,2.90
2018-02-12T10:54:19.304Z,3.03
2018-02-12T10:56:47.052Z,3.05
2018-02-12T10:59:14.734Z,2.33
2018-02-12T11:01:42.459Z,2.83
2018-02-12T11:04:10.144Z,2.25
2018-02-12T11:06:37.817Z,2.53
2018-02-12T11:09:05.765Z,3.30
2018-02-12T11:11:33.460Z,3.00
2018-02-12T11:14:01.672Z,3.20
2018-02-12T11:16:29.328Z,2.78
2018-02-12T11:18:57.149Z,2.70
2018-02-12T11:21:24.816Z,2.30
2018-02-12T11:23:52.586Z,3.35
2018-02-12T11:26:20.580Z,3.35
2018-02-12T11:28:48.249Z,3.45
2018-02-12T11:31:15.963Z,2.70
2018-02-12T11:33:43.726Z,3.00
2018-02-12T11:36:11.464Z,2.85
2018-02-12T11:38:39.129Z,2.62
2018-02-12T11:41:06.836Z,2.47
2018-02-12T11:43:34.541Z,2.60
2018-02-12T11:46:02.204Z,2.05
2018-02-12T11:48:29.900Z,2.50
2018-02-12T11:50:57.985Z,2.50
2018-02-12T11:53:26.141Z,3.83
2018-02-12T11:55:54.028Z,2.50
2018-02-12T11:58:21.699Z,2.30
2018-02-12T12:00:49.750Z,2.47
2018-02-12T12:03:17.443Z,1.65
2018-02-12T12:05:45.432Z,1.40
2018-02-12T12:08:13.091Z,1.55
2018-02-12T12:10:40.829Z,1.87
2018-02-12T12:13:08.720Z,2.40
2018-02-12T12:15:36.378Z,2.33
2018-02-12T12:18:04.073Z,1.95
2018-02-12T12:20:31.747Z,1.87
2018-02-12T12:22:59.794Z,1.95
2018-02-12T12:25:27.868Z,1.60
2018-02-12T12:27:55.903Z,2.00
2018-02-12T12:30:23.570Z,2.30
2018-02-12T12:32:51.262Z,1.77
2018-02-12T12:35:18.950Z,1.80
2018-02-12T12:37:46.683Z,2.42
2018-02-12T12:40:14.352Z,1.83
2018-02-12T12:42:42.019Z,2.50
2018-02-12T12:45:09.933Z,1.95
2018-02-12T12:47:37.611Z,2.50
2018-02-12T12:50:05.278Z,1.70
2018-02-12T12:52:33.080Z,2.35
2018-02-12T12:55:00.942Z,1.43
2018-02-12T12:57:29.379Z,1.60
2018-02-12T12:59:57.083Z,2.10
2018-02-12T13:02:25.472Z,3.00
2018-02-12T13:04:53.283Z,2.53
2018-02-12T13:07:20.952Z,1.85
2018-02-12T13:09:48.664Z,2.97
2018-02-12T13:12:16.275Z,3.90
2018-02-12T13:14:44.530Z,3.57
2018-02-12T13:17:12.227Z,2.42
2018-02-12T13:19:40.066Z,2.70
2018-02-12T13:22:07.756Z,1.83
2018-02-12T13:24:35.797Z,2.10
2018-02-12T13:27:03.678Z,2.00
2018-02-12T13:29:31.271Z,2.70
2018-02-12T13:31:58.868Z,2.70
2018-02-12T13:34:26.450Z,2.63
2018-02-12T13:36:54.084Z,1.83
2018-02-12T13:39:21.875Z,2.10
2018-02-12T13:41:49.940Z,2.08
2018-02-12T13:44:17.699Z,2.62
2018-02-12T13:46:45.982Z,2.85
2018-02-12T13:49:13.801Z,1.30
2018-02-12T13:51:41.488Z,1.50
2018-02-12T13:54:09.909Z,1.65
2018-02-12T13:56:37.874Z,1.27
2018-02-12T13:59:05.546Z,1.95
2018-02-12T14:01:33.239Z,1.30
2018-02-12T14:04:00.901Z,1.40
2018-02-12T14:06:28.641Z,2.10
2018-02-12T14:08:56.374Z,1.87
2018-02-12T14:11:24.471Z,1.70
2018-02-12T14:13:52.207Z,1.42
2018-02-12T14:16:19.877Z,2.60
2018-02-12T14:18:47.571Z,1.90
2018-02-12T14:21:15.240Z,2.10
2018-02-12T14:23:43.355Z,1.92
2018-02-12T14:26:11.384Z,2.47
2018-02-12T14:28:39.200Z,2.90
2018-02-12T14:31:07.326Z,2.00
2018-02-12T14:33:35.002Z,1.90
2018-02-12T14:36:02.755Z,2.55
2018-02-12T14:38:30.440Z,2.53
2018-02-12T14:40:58.143Z,3.67
2018-02-12T14:43:25.884Z,2.35
2018-02-12T14:45:53.985Z,1.73
2018-02-12T14:48:21.674Z,2.10
2018-02-12T14:50:49.386Z,2.25
2018-02-12T14:53:17.179Z,2.72
2018-02-12T14:55:45.094Z,1.90
2018-02-12T14:58:12.787Z,1.75
2018-02-12T15:00:40.459Z,1.50
2018-02-12T15:03:08.736Z,1.80
2018-02-12T15:05:36.453Z,1.00
2018-02-12T15:08:04.121Z,1.80
2018-02-12T15:10:31.807Z,1.90
2018-02-12T15:12:59.463Z,2.55
2018-02-12T15:15:27.144Z,2.50
2018-02-12T15:17:54.803Z,2.33
2018-02-12T15:20:22.493Z,2.53
2018-02-12T15:22:50.184Z,2.03
2018-02-12T15:25:18.225Z,2.20
2018-02-12T15:27:46.391Z,1.30
2018-02-12T15:30:14.120Z,2.55
2018-02-12T15:32:42.244Z,2.22
2018-02-12T15:35:10.326Z,2.22
2018-02-12T15:37:38.122Z,2.40
2018-02-12T15:40:05.830Z,2.72
2018-02-12T15:42:33.601Z,2.17
2018-02-12T15:45:01.307Z,2.00
2018-02-12T15:47:29.001Z,2.47
2018-02-12T15:49:56.826Z,2.30
2018-02-12T15:52:24.496Z,2.33
2018-02-12T15:54:52.421Z,2.30
2018-02-12T15:57:20.390Z,2.62
2018-02-12T15:59:48.052Z,2.62
2018-02-12T16:02:15.736Z,2.80
2018-02-12T16:04:43.415Z,2.28
2018-02-12T16:07:11.241Z,2.08
2018-02-12T16:09:38.924Z,2.10
2018-02-12T16:12:06.580Z,2.17
2018-02-12T16:14:34.331Z,2.30
2018-02-12T16:17:02.021Z,2.70
2018-02-12T16:19:29.709Z,3.10
2018-02-12T16:21:57.376Z,2.83
2018-02-12T16:24:25.133Z,3.22
2018-02-12T16:26:52.816Z,3.47
2018-02-12T16:29:20.530Z,3.33
2018-02-12T16:31:48.227Z,3.58
2018-02-12T16:34:15.898Z,3.30
2018-02-12T16:36:43.634Z,3.67
2018-02-12T16:39:11.301Z,3.80
2018-02-12T16:41:39.181Z,3.75
2018-02-12T16:44:06.835Z,4.10
2018-02-12T16:46:34.511Z,3.62
2018-02-12T16:49:02.220Z,4.80
2018-02-12T16:51:29.884Z,3.70
2018-02-12T16:53:57.667Z,4.22
2018-02-12T16:56:25.391Z,4.35
2018-02-12T16:58:53.123Z,4.05
2018-02-12T17:01:20.802Z,5.32
2018-02-12T17:03:48.475Z,5.85
2018-02-12T17:06:16.158Z,5.18
2018-02-12T17:08:43.819Z,4.15
2018-02-12T17:11:11.507Z,3.90
2018-02-12T17:13:39.167Z,3.55
2018-02-12T17:16:07.134Z,3.20
2018-02-12T17:18:34.798Z,4.15
2018-02-12T17:21:02.475Z,4.65
2018-02-12T17:23:30.171Z,4.47
2018-02-12T17:25:57.866Z,4.40
2018-02-12T17:28:25.546Z,4.53
2018-02-12T17:30:53.220Z,4.30
2018-02-12T17:33:21.026Z,3.60
2018-02-12T17:35:48.688Z,4.53
2018-02-12T17:38:16.376Z,4.95
2018-02-12T17:40:44.060Z,4.60
2018-02-12T17:43:11.731Z,4.35
2018-02-12T17:45:39.418Z,5.07
2018-02-12T17:48:07.967Z,3.83
2018-02-12T17:50:35.680Z,4.03
2018-02-12T17:53:03.330Z,4.40
2018-02-12T17:55:31.000Z,4.80
2018-02-12T17:57:58.690Z,4.75
2018-02-12T18:00:26.464Z,4.50
2018-02-12T18:02:54.301Z,4.18
2018-02-12T18:05:21.957Z,4.70
2018-02-12T18:07:49.609Z,4.93
2018-02-12T18:10:17.299Z,8.10
2018-02-12T18:12:44.977Z,6.97
2018-02-12T18:15:13.627Z,7.30
2018-02-12T18:17:41.307Z,9.02
2018-02-12T18:20:09.042Z,9.18
2018-02-12T18:22:36.736Z,9.20
2018-02-12T18:25:04.423Z,8.63
2018-02-12T18:27:32.136Z,7.05
2018-02-12T18:29:59.802Z,5.80
2018-02-12T18:32:27.489Z,5.15
2018-02-12T18:34:55.160Z,3.92
2018-02-12T18:37:22.850Z,4.85
2018-02-12T18:39:50.505Z,4.60
2018-02-12T18:42:18.159Z,4.55
2018-02-12T18:44:45.850Z,5.32
2018-02-12T18:47:13.522Z,4.68
2018-02-12T18:49:41.207Z,5.55
2018-02-12T18:52:08.888Z,4.40
2018-02-12T18:54:36.761Z,3.95
2018-02-12T18:57:04.428Z,4.75
2018-02-12T18:59:32.103Z,3.87
2018-02-12T19:01:59.824Z,4.18
2018-02-12T19:04:27.488Z,4.53
2018-02-12T19:06:55.207Z,5.25
2018-02-12T19:09:22.872Z,3.20
2018-02-12T19:11:50.687Z,4.05
2018-02-12T19:14:18.357Z,4.18
2018-02-12T19:16:46.022Z,5.03
2018-02-12T19:19:13.720Z,5.57
2018-02-12T19:21:41.445Z,4.82
2018-02-12T19:24:09.155Z,5.68
2018-02-12T19:26:36.822Z,4.15
2018-02-12T19:29:04.545Z,5.15
2018-02-12T19:31:32.203Z,5.10
2018-02-12T19:33:59.868Z,5.60
2018-02-12T19:36:27.544Z,6.12
2018-02-12T19:38:55.212Z,4.82
2018-02-12T19:41:22.904Z,4.35
2018-02-12T19:43:50.639Z,4.32
2018-02-12T19:46:18.332Z,4.97
2018-02-12T19:48:45.994Z,4.60
2018-02-12T19:51:13.652Z,5.05
2018-02-12T19:53:41.351Z,5.37
2018-02-12T19:56:09.017Z,5.07
2018-02-12T19:58:36.715Z,5.07
2018-02-12T20:01:04.423Z,5.20
2018-02-12T20:03:32.652Z,4.55
2018-02-12T20:06:00.339Z,4.82
2018-02-12T20:08:28.060Z,4.65
2018-02-12T20:10:55.740Z,4.50
2018-02-12T20:13:23.895Z,5.35
2018-02-12T20:15:51.582Z,5.53
2018-02-12T20:18:19.239Z,4.90
2018-02-12T20:20:47.187Z,5.00
2018-02-12T20:23:14.847Z,4.87
2018-02-12T20:25:42.520Z,5.10
2018-02-12T20:28:10.199Z,5.70
2018-02-12T20:30:37.874Z,6.22
2018-02-12T20:33:05.559Z,5.28
2018-02-12T20:35:33.234Z,6.00
2018-02-12T20:38:01.121Z,5.53
2018-02-12T20:40:28.793Z,5.53
2018-02-12T20:42:56.454Z,6.20
2018-02-12T20:45:24.139Z,5.72
2018-02-12T20:47:51.801Z,5.10
2018-02-12T20:50:19.493Z,5.50
2018-02-12T20:52:47.165Z,5.40
2018-02-12T20:55:15.269Z,4.95
2018-02-12T20:57:42.935Z,5.00
2018-02-12T21:00:10.594Z,5.20
2018-02-12T21:02:38.275Z,6.45
2018-02-12T21:05:05.939Z,6.70
2018-02-12T21:07:33.631Z,6.62
2018-02-12T21:10:01.319Z,6.25
2018-02-12T21:12:29.015Z,6.62
2018-02-12T21:14:56.715Z,6.25
2018-02-12T21:17:24.379Z,6.68
2018-02-12T21:19:52.065Z,6.87
2018-02-12T21:22:19.721Z,5.72
2018-02-12T21:24:47.417Z,7.07
2018-02-12T21:27:15.087Z,11.20
2018-02-12T21:29:42.752Z,6.40
2018-02-12T21:32:10.431Z,6.30
2018-02-12T21:34:38.094Z,6.45
2018-02-12T21:37:05.782Z,6.40
2018-02-12T21:39:33.446Z,6.45
2018-02-12T21:42:01.355Z,6.50
2018-02-12T21:44:29.022Z,5.60
2018-02-12T21:46:56.685Z,6.25
2018-02-12T21:49:24.384Z,5.00
2018-02-12T21:51:52.052Z,5.20
2018-02-12T21:54:19.741Z,5.93
2018-02-12T21:56:47.421Z,5.28
2018-02-12T21:59:15.318Z,5.30
2018-02-12T22:01:42.975Z,5.75
2018-02-12T22:04:10.654Z,5.90
2018-02-12T22:06:38.337Z,6.07
2018-02-12T22:09:06.053Z,5.62
2018-02-12T22:11:33.745Z,6.57
2018-02-12T22:14:01.420Z,6.43
2018-02-12T22:16:29.080Z,7.37
2018-02-12T22:18:56.774Z,6.70
2018-02-12T22:21:24.437Z,7.05
2018-02-12T22:23:52.332Z,7.00
2018-02-12T22:26:19.999Z,7.90
2018-02-12T22:28:47.675Z,6.03
2018-02-12T22:31:15.358Z,6.87
2018-02-12T22:33:43.019Z,6.90
2018-02-12T22:36:10.940Z,7.40
2018-02-12T22:38:38.751Z,6.68
2018-02-12T22:41:06.419Z,6.53
2018-02-12T22:43:34.130Z,7.18
2018-02-12T22:46:01.799Z,9.20
2018-02-12T22:48:29.671Z,8.68
2018-02-12T22:50:57.340Z,7.65
2018-02-12T22:53:25.016Z,7.78
2018-02-12T22:55:52.757Z,9.32
2018-02-12T22:58:20.404Z,7.75
2018-02-12T23:00:48.112Z,7.47
2018-02-12T23:03:15.784Z,8.52
2018-02-12T23:05:43.543Z,7.75
2018-02-12T23:08:11.282Z,8.50
2018-02-12T23:10:38.949Z,8.18
2018-02-12T23:13:06.795Z,9.30
2018-02-12T23:15:34.478Z,8.90
2018-02-12T23:18:02.137Z,7.72
2018-02-12T23:20:29.826Z,7.93
2018-02-12T23:22:57.487Z,7.35
2018-02-12T23:25:25.316Z,7.45
2018-02-12T23:27:52.978Z,7.72
2018-02-12T23:30:20.649Z,8.05
2018-02-12T23:32:48.343Z,8.18
2018-02-12T23:35:16.029Z,10.00
2018-02-12T23:37:44.029Z,9.00
2018-02-12T23:40:11.697Z,9.75
2018-02-12T23:42:39.361Z,7.78
2018-02-12T23:45:07.047Z,8.05
2018-02-12T23:47:34.728Z,10.63
2018-02-12T23:50:02.469Z,8.88
2018-02-12T23:52:30.131Z,9.60
2018-02-12T23:54:57.787Z,8.30
2018-02-12T23:57:25.478Z,8.27
2018-02-12T23:59:53.162Z,9.65
